sensor_id;sensor_type;location;lat;lon;timestamp;P1;durP1;ratioP1;P2;durP2;ratioP2
1000;SDS011;489;47.806;12.858;2023-08-12T00:00:36;3.00;;;2.80;;
1000;SDS011;489;47.806;12.858;2023-08-12T00:02:40;3.30;;;3.10;;
1000;SDS011;489;47.806;12.858;2023-08-12T00:04:42;3.70;;;3.50;;
1000;SDS011;489;47.806;12.858;2023-08-12T00:06:44;3.00;;;2.80;;
1000;SDS011;489;47.806;12.858;2023-08-12T00:08:46;4.10;;;3.80;;
1000;SDS011;489;47.806;12.858;2023-08-12T00:10:47;3.03;;;2.83;;
1000;SDS011;489;47.806;12.858;2023-08-12T00:12:49;3.93;;;3.40;;
1000;SDS011;489;47.806;12.858;2023-08-12T00:14:51;3.10;;;2.90;;
1000;SDS011;489;47.806;12.858;2023-08-12T00:16:54;3.53;;;3.23;;
1000;SDS011;489;47.806;12.858;2023-08-12T00:18:57;3.43;;;3.13;;
1000;SDS011;489;47.806;12.858;2023-08-12T00:20:59;3.20;;;2.90;;
1000;SDS011;489;47.806;12.858;2023-08-12T00:23:00;2.77;;;2.57;;
1000;SDS011;489;47.806;12.858;2023-08-12T00:25:04;2.53;;;2.33;;
1000;SDS011;489;47.806;12.858;2023-08-12T00:27:07;3.20;;;3.00;;
1000;SDS011;489;47.806;12.858;2023-08-12T00:29:10;3.03;;;2.77;;
1000;SDS011;489;47.806;12.858;2023-08-12T00:31:11;3.20;;;2.93;;
1000;SDS011;489;47.806;12.858;2023-08-12T00:33:13;3.17;;;2.87;;
1000;SDS011;489;47.806;12.858;2023-08-12T00:35:17;3.47;;;3.17;;
1000;SDS011;489;47.806;12.858;2023-08-12T00:37:19;2.60;;;2.40;;
1000;SDS011;489;47.806;12.858;2023-08-12T00:39:20;2.70;;;2.50;;
1000;SDS011;489;47.806;12.858;2023-08-12T00:41:23;2.90;;;2.70;;
1000;SDS011;489;47.806;12.858;2023-08-12T00:43:25;3.77;;;2.63;;
1000;SDS011;489;47.806;12.858;2023-08-12T00:45:26;3.23;;;3.00;;
1000;SDS011;489;47.806;12.858;2023-08-12T00:47:28;2.83;;;2.23;;
1000;SDS011;489;47.806;12.858;2023-08-12T00:49:31;3.10;;;2.90;;
1000;SDS011;489;47.806;12.858;2023-08-12T00:51:34;2.87;;;2.60;;
1000;SDS011;489;47.806;12.858;2023-08-12T00:53:36;3.33;;;3.13;;
1000;SDS011;489;47.806;12.858;2023-08-12T00:55:38;2.90;;;2.70;;
1000;SDS011;489;47.806;12.858;2023-08-12T00:57:40;3.97;;;3.20;;
1000;SDS011;489;47.806;12.858;2023-08-12T00:59:42;2.67;;;2.47;;
1000;SDS011;489;47.806;12.858;2023-08-12T01:01:44;3.37;;;2.50;;
1000;SDS011;489;47.806;12.858;2023-08-12T01:03:46;2.90;;;2.70;;
1000;SDS011;489;47.806;12.858;2023-08-12T01:05:48;3.00;;;2.80;;
1000;SDS011;489;47.806;12.858;2023-08-12T01:07:52;5.00;;;2.83;;
1000;SDS011;489;47.806;12.858;2023-08-12T01:09:54;3.60;;;3.33;;
1000;SDS011;489;47.806;12.858;2023-08-12T01:11:57;3.43;;;3.13;;
1000;SDS011;489;47.806;12.858;2023-08-12T01:14:04;2.83;;;2.50;;
1000;SDS011;489;47.806;12.858;2023-08-12T01:16:10;3.30;;;3.07;;
1000;SDS011;489;47.806;12.858;2023-08-12T01:18:14;3.23;;;2.90;;
1000;SDS011;489;47.806;12.858;2023-08-12T01:20:16;3.03;;;2.83;;
1000;SDS011;489;47.806;12.858;2023-08-12T01:22:19;2.70;;;2.50;;
1000;SDS011;489;47.806;12.858;2023-08-12T01:24:25;3.17;;;2.80;;
1000;SDS011;489;47.806;12.858;2023-08-12T01:26:27;3.67;;;3.40;;
1000;SDS011;489;47.806;12.858;2023-08-12T01:28:29;3.03;;;2.80;;
1000;SDS011;489;47.806;12.858;2023-08-12T01:30:31;2.90;;;2.70;;
1000;SDS011;489;47.806;12.858;2023-08-12T01:32:34;3.20;;;2.90;;
1000;SDS011;489;47.806;12.858;2023-08-12T01:34:43;3.40;;;3.10;;
1000;SDS011;489;47.806;12.858;2023-08-12T01:36:49;4.40;;;2.70;;
1000;SDS011;489;47.806;12.858;2023-08-12T01:38:55;2.87;;;2.67;;
1000;SDS011;489;47.806;12.858;2023-08-12T01:40:59;3.97;;;2.90;;
1000;SDS011;489;47.806;12.858;2023-08-12T01:43:02;2.93;;;2.73;;
1000;SDS011;489;47.806;12.858;2023-08-12T01:45:05;3.03;;;2.83;;
1000;SDS011;489;47.806;12.858;2023-08-12T01:47:08;3.23;;;3.03;;
1000;SDS011;489;47.806;12.858;2023-08-12T01:49:11;3.73;;;2.53;;
1000;SDS011;489;47.806;12.858;2023-08-12T01:51:13;3.30;;;3.10;;
1000;SDS011;489;47.806;12.858;2023-08-12T01:53:16;2.80;;;2.60;;
1000;SDS011;489;47.806;12.858;2023-08-12T01:55:18;4.10;;;2.70;;
1000;SDS011;489;47.806;12.858;2023-08-12T01:57:21;4.47;;;2.93;;
1000;SDS011;489;47.806;12.858;2023-08-12T01:59:22;2.47;;;2.27;;
1000;SDS011;489;47.806;12.858;2023-08-12T02:01:24;2.93;;;2.73;;
1000;SDS011;489;47.806;12.858;2023-08-12T02:03:27;2.77;;;2.57;;
1000;SDS011;489;47.806;12.858;2023-08-12T02:05:29;2.60;;;2.40;;
1000;SDS011;489;47.806;12.858;2023-08-12T02:07:31;2.50;;;2.30;;
1000;SDS011;489;47.806;12.858;2023-08-12T02:09:33;3.57;;;2.60;;
1000;SDS011;489;47.806;12.858;2023-08-12T02:11:35;2.77;;;2.50;;
1000;SDS011;489;47.806;12.858;2023-08-12T02:13:38;3.17;;;2.87;;
1000;SDS011;489;47.806;12.858;2023-08-12T02:15:40;2.97;;;2.77;;
1000;SDS011;489;47.806;12.858;2023-08-12T02:17:46;3.40;;;3.10;;
1000;SDS011;489;47.806;12.858;2023-08-12T02:19:48;2.57;;;2.37;;
1000;SDS011;489;47.806;12.858;2023-08-12T02:21:50;2.47;;;2.27;;
1000;SDS011;489;47.806;12.858;2023-08-12T02:23:52;2.87;;;2.53;;
1000;SDS011;489;47.806;12.858;2023-08-12T02:25:55;5.93;;;2.60;;
1000;SDS011;489;47.806;12.858;2023-08-12T02:28:16;3.37;;;2.57;;
1000;SDS011;489;47.806;12.858;2023-08-12T02:30:19;2.60;;;2.40;;
1000;SDS011;489;47.806;12.858;2023-08-12T02:32:21;3.03;;;2.83;;
1000;SDS011;489;47.806;12.858;2023-08-12T02:34:24;3.20;;;2.90;;
1000;SDS011;489;47.806;12.858;2023-08-12T02:36:26;2.80;;;2.60;;
1000;SDS011;489;47.806;12.858;2023-08-12T02:38:29;2.90;;;2.70;;
1000;SDS011;489;47.806;12.858;2023-08-12T02:40:31;4.27;;;2.70;;
1000;SDS011;489;47.806;12.858;2023-08-12T02:42:33;3.13;;;2.83;;
1000;SDS011;489;47.806;12.858;2023-08-12T02:44:35;3.10;;;2.70;;
1000;SDS011;489;47.806;12.858;2023-08-12T02:46:39;2.30;;;2.10;;
1000;SDS011;489;47.806;12.858;2023-08-12T02:48:41;2.80;;;2.43;;
1000;SDS011;489;47.806;12.858;2023-08-12T02:50:43;4.77;;;2.73;;
1000;SDS011;489;47.806;12.858;2023-08-12T02:52:45;2.20;;;2.00;;
1000;SDS011;489;47.806;12.858;2023-08-12T02:54:47;3.50;;;2.50;;
1000;SDS011;489;47.806;12.858;2023-08-12T02:56:49;2.50;;;2.30;;
1000;SDS011;489;47.806;12.858;2023-08-12T02:58:51;2.17;;;1.97;;
1000;SDS011;489;47.806;12.858;2023-08-12T03:00:54;2.30;;;2.10;;
1000;SDS011;489;47.806;12.858;2023-08-12T03:02:57;2.70;;;2.27;;
1000;SDS011;489;47.806;12.858;2023-08-12T03:04:59;2.20;;;2.00;;
1000;SDS011;489;47.806;12.858;2023-08-12T03:07:01;2.77;;;2.37;;
1000;SDS011;489;47.806;12.858;2023-08-12T03:09:04;2.27;;;2.13;;
1000;SDS011;489;47.806;12.858;2023-08-12T03:11:06;2.20;;;2.00;;
1000;SDS011;489;47.806;12.858;2023-08-12T03:13:09;1.93;;;1.63;;
1000;SDS011;489;47.806;12.858;2023-08-12T03:15:11;1.97;;;1.80;;
1000;SDS011;489;47.806;12.858;2023-08-12T03:17:12;2.40;;;1.73;;
1000;SDS011;489;47.806;12.858;2023-08-12T03:19:16;1.80;;;1.70;;
1000;SDS011;489;47.806;12.858;2023-08-12T03:21:19;2.17;;;1.67;;
1000;SDS011;489;47.806;12.858;2023-08-12T03:23:22;2.47;;;2.13;;
1000;SDS011;489;47.806;12.858;2023-08-12T03:25:24;2.90;;;1.80;;
1000;SDS011;489;47.806;12.858;2023-08-12T03:27:26;1.73;;;1.53;;
1000;SDS011;489;47.806;12.858;2023-08-12T03:29:29;3.60;;;2.00;;
1000;SDS011;489;47.806;12.858;2023-08-12T03:31:32;1.63;;;1.53;;
1000;SDS011;489;47.806;12.858;2023-08-12T03:33:35;2.50;;;2.30;;
1000;SDS011;489;47.806;12.858;2023-08-12T03:35:39;2.27;;;1.80;;
1000;SDS011;489;47.806;12.858;2023-08-12T03:37:47;2.03;;;1.90;;
1000;SDS011;489;47.806;12.858;2023-08-12T03:39:49;1.87;;;1.67;;
1000;SDS011;489;47.806;12.858;2023-08-12T03:41:51;1.83;;;1.73;;
1000;SDS011;489;47.806;12.858;2023-08-12T03:43:54;2.30;;;2.10;;
1000;SDS011;489;47.806;12.858;2023-08-12T03:45:56;4.00;;;1.90;;
1000;SDS011;489;47.806;12.858;2023-08-12T03:47:59;2.53;;;1.87;;
1000;SDS011;489;47.806;12.858;2023-08-12T03:50:02;2.10;;;1.90;;
1000;SDS011;489;47.806;12.858;2023-08-12T03:52:07;2.40;;;2.20;;
1000;SDS011;489;47.806;12.858;2023-08-12T03:54:10;2.10;;;2.00;;
1000;SDS011;489;47.806;12.858;2023-08-12T03:56:11;2.70;;;2.50;;
1000;SDS011;489;47.806;12.858;2023-08-12T03:58:15;2.40;;;2.20;;
1000;SDS011;489;47.806;12.858;2023-08-12T04:00:18;2.97;;;2.23;;
1000;SDS011;489;47.806;12.858;2023-08-12T04:02:21;2.30;;;2.10;;
1000;SDS011;489;47.806;12.858;2023-08-12T04:04:23;1.90;;;1.80;;
1000;SDS011;489;47.806;12.858;2023-08-12T04:06:23;2.53;;;2.30;;
1000;SDS011;489;47.806;12.858;2023-08-12T04:08:27;1.70;;;1.60;;
1000;SDS011;489;47.806;12.858;2023-08-12T04:10:29;2.00;;;1.77;;
1000;SDS011;489;47.806;12.858;2023-08-12T04:12:31;1.97;;;1.80;;
1000;SDS011;489;47.806;12.858;2023-08-12T04:14:33;2.30;;;2.10;;
1000;SDS011;489;47.806;12.858;2023-08-12T04:16:35;2.47;;;2.23;;
1000;SDS011;489;47.806;12.858;2023-08-12T04:18:37;2.50;;;2.30;;
1000;SDS011;489;47.806;12.858;2023-08-12T04:20:39;2.70;;;2.30;;
1000;SDS011;489;47.806;12.858;2023-08-12T04:22:41;2.30;;;2.10;;
1000;SDS011;489;47.806;12.858;2023-08-12T04:24:45;2.60;;;2.30;;
1000;SDS011;489;47.806;12.858;2023-08-12T04:26:47;2.40;;;2.30;;
1000;SDS011;489;47.806;12.858;2023-08-12T04:28:50;3.10;;;2.80;;
1000;SDS011;489;47.806;12.858;2023-08-12T04:30:52;3.20;;;2.33;;
1000;SDS011;489;47.806;12.858;2023-08-12T04:32:56;2.23;;;2.03;;
1000;SDS011;489;47.806;12.858;2023-08-12T04:35:00;2.43;;;2.10;;
1000;SDS011;489;47.806;12.858;2023-08-12T04:37:03;3.10;;;2.80;;
1000;SDS011;489;47.806;12.858;2023-08-12T04:39:05;10.93;;;2.60;;
1000;SDS011;489;47.806;12.858;2023-08-12T04:41:08;2.67;;;2.47;;
1000;SDS011;489;47.806;12.858;2023-08-12T04:43:11;2.53;;;2.30;;
1000;SDS011;489;47.806;12.858;2023-08-12T04:45:14;3.80;;;2.70;;
1000;SDS011;489;47.806;12.858;2023-08-12T04:47:16;3.20;;;2.60;;
1000;SDS011;489;47.806;12.858;2023-08-12T04:49:18;3.10;;;2.50;;
1000;SDS011;489;47.806;12.858;2023-08-12T04:51:20;2.70;;;2.50;;
1000;SDS011;489;47.806;12.858;2023-08-12T04:53:22;2.60;;;2.07;;
1000;SDS011;489;47.806;12.858;2023-08-12T04:55:25;2.70;;;2.50;;
1000;SDS011;489;47.806;12.858;2023-08-12T04:57:28;2.27;;;2.17;;
1000;SDS011;489;47.806;12.858;2023-08-12T04:59:30;2.27;;;2.17;;
1000;SDS011;489;47.806;12.858;2023-08-12T05:01:32;2.87;;;2.57;;
1000;SDS011;489;47.806;12.858;2023-08-12T05:03:35;2.50;;;2.20;;
1000;SDS011;489;47.806;12.858;2023-08-12T05:05:37;2.03;;;1.83;;
1000;SDS011;489;47.806;12.858;2023-08-12T05:07:38;4.93;;;2.60;;
1000;SDS011;489;47.806;12.858;2023-08-12T05:09:40;2.40;;;2.03;;
1000;SDS011;489;47.806;12.858;2023-08-12T05:11:44;2.53;;;2.33;;
1000;SDS011;489;47.806;12.858;2023-08-12T05:13:47;2.40;;;2.20;;
1000;SDS011;489;47.806;12.858;2023-08-12T05:15:49;2.40;;;2.20;;
1000;SDS011;489;47.806;12.858;2023-08-12T05:17:52;2.93;;;2.33;;
1000;SDS011;489;47.806;12.858;2023-08-12T05:20:12;2.63;;;2.43;;
1000;SDS011;489;47.806;12.858;2023-08-12T05:22:15;2.87;;;2.67;;
1000;SDS011;489;47.806;12.858;2023-08-12T05:24:17;2.87;;;2.60;;
1000;SDS011;489;47.806;12.858;2023-08-12T05:26:19;6.17;;;2.70;;
1000;SDS011;489;47.806;12.858;2023-08-12T05:28:21;2.40;;;2.20;;
1000;SDS011;489;47.806;12.858;2023-08-12T05:30:24;3.30;;;2.50;;
1000;SDS011;489;47.806;12.858;2023-08-12T05:32:27;3.13;;;2.90;;
1000;SDS011;489;47.806;12.858;2023-08-12T05:34:29;3.30;;;3.00;;
1000;SDS011;489;47.806;12.858;2023-08-12T05:36:31;3.00;;;2.60;;
1000;SDS011;489;47.806;12.858;2023-08-12T05:38:32;2.83;;;2.63;;
1000;SDS011;489;47.806;12.858;2023-08-12T05:40:34;3.27;;;2.97;;
1000;SDS011;489;47.806;12.858;2023-08-12T05:42:36;2.70;;;2.47;;
1000;SDS011;489;47.806;12.858;2023-08-12T05:44:40;3.20;;;2.90;;
1000;SDS011;489;47.806;12.858;2023-08-12T05:46:43;2.90;;;2.70;;
1000;SDS011;489;47.806;12.858;2023-08-12T05:48:45;2.40;;;2.20;;
1000;SDS011;489;47.806;12.858;2023-08-12T05:50:47;3.47;;;3.17;;
1000;SDS011;489;47.806;12.858;2023-08-12T05:52:52;4.10;;;2.80;;
1000;SDS011;489;47.806;12.858;2023-08-12T05:54:54;2.97;;;2.73;;
1000;SDS011;489;47.806;12.858;2023-08-12T05:56:56;2.93;;;2.70;;
1000;SDS011;489;47.806;12.858;2023-08-12T05:58:58;3.40;;;2.87;;
1000;SDS011;489;47.806;12.858;2023-08-12T06:01:00;3.27;;;3.00;;
1000;SDS011;489;47.806;12.858;2023-08-12T06:03:04;2.73;;;2.53;;
1000;SDS011;489;47.806;12.858;2023-08-12T06:05:06;2.73;;;2.53;;
1000;SDS011;489;47.806;12.858;2023-08-12T06:07:09;3.00;;;2.70;;
1000;SDS011;489;47.806;12.858;2023-08-12T06:09:12;3.47;;;2.70;;
1000;SDS011;489;47.806;12.858;2023-08-12T06:11:14;3.13;;;2.87;;
1000;SDS011;489;47.806;12.858;2023-08-12T06:13:16;3.80;;;3.03;;
1000;SDS011;489;47.806;12.858;2023-08-12T06:15:18;3.20;;;2.90;;
1000;SDS011;489;47.806;12.858;2023-08-12T06:17:20;3.63;;;2.60;;
1000;SDS011;489;47.806;12.858;2023-08-12T06:19:23;2.93;;;2.73;;
1000;SDS011;489;47.806;12.858;2023-08-12T06:21:25;3.03;;;2.80;;
1000;SDS011;489;47.806;12.858;2023-08-12T06:23:27;2.80;;;2.60;;
1000;SDS011;489;47.806;12.858;2023-08-12T06:25:30;3.30;;;3.00;;
1000;SDS011;489;47.806;12.858;2023-08-12T06:27:31;3.17;;;2.97;;
1000;SDS011;489;47.806;12.858;2023-08-12T06:29:33;3.77;;;2.60;;
1000;SDS011;489;47.806;12.858;2023-08-12T06:31:35;2.73;;;2.53;;
1000;SDS011;489;47.806;12.858;2023-08-12T06:33:37;3.60;;;2.80;;
1000;SDS011;489;47.806;12.858;2023-08-12T06:35:41;3.63;;;3.23;;
1000;SDS011;489;47.806;12.858;2023-08-12T06:37:42;2.90;;;2.70;;
1000;SDS011;489;47.806;12.858;2023-08-12T06:39:44;3.40;;;3.10;;
1000;SDS011;489;47.806;12.858;2023-08-12T06:41:48;3.93;;;3.40;;
1000;SDS011;489;47.806;12.858;2023-08-12T06:43:51;3.20;;;3.00;;
1000;SDS011;489;47.806;12.858;2023-08-12T06:45:53;3.47;;;3.17;;
1000;SDS011;489;47.806;12.858;2023-08-12T06:47:55;3.50;;;3.20;;
1000;SDS011;489;47.806;12.858;2023-08-12T06:49:57;3.20;;;3.00;;
1000;SDS011;489;47.806;12.858;2023-08-12T06:52:00;3.70;;;3.40;;
1000;SDS011;489;47.806;12.858;2023-08-12T06:54:02;4.03;;;2.80;;
1000;SDS011;489;47.806;12.858;2023-08-12T06:56:05;3.20;;;3.00;;
1000;SDS011;489;47.806;12.858;2023-08-12T06:58:09;3.17;;;2.90;;
1000;SDS011;489;47.806;12.858;2023-08-12T07:00:11;2.67;;;2.47;;
1000;SDS011;489;47.806;12.858;2023-08-12T07:02:13;3.97;;;3.57;;
1000;SDS011;489;47.806;12.858;2023-08-12T07:04:15;3.30;;;3.00;;
1000;SDS011;489;47.806;12.858;2023-08-12T07:06:17;3.40;;;3.20;;
1000;SDS011;489;47.806;12.858;2023-08-12T07:08:39;4.33;;;3.20;;
1000;SDS011;489;47.806;12.858;2023-08-12T07:10:41;3.80;;;2.80;;
1000;SDS011;489;47.806;12.858;2023-08-12T07:12:44;3.53;;;2.90;;
1000;SDS011;489;47.806;12.858;2023-08-12T07:14:46;3.30;;;3.00;;
1000;SDS011;489;47.806;12.858;2023-08-12T07:16:48;3.60;;;2.70;;
1000;SDS011;489;47.806;12.858;2023-08-12T07:18:50;3.10;;;2.80;;
1000;SDS011;489;47.806;12.858;2023-08-12T07:20:51;2.70;;;2.50;;
1000;SDS011;489;47.806;12.858;2023-08-12T07:22:53;3.00;;;2.70;;
1000;SDS011;489;47.806;12.858;2023-08-12T07:24:57;3.07;;;2.87;;
1000;SDS011;489;47.806;12.858;2023-08-12T07:27:00;3.17;;;2.90;;
1000;SDS011;489;47.806;12.858;2023-08-12T07:29:03;2.70;;;2.50;;
1000;SDS011;489;47.806;12.858;2023-08-12T07:31:05;3.20;;;3.00;;
1000;SDS011;489;47.806;12.858;2023-08-12T07:33:07;3.20;;;2.90;;
1000;SDS011;489;47.806;12.858;2023-08-12T07:35:09;3.03;;;2.70;;
1000;SDS011;489;47.806;12.858;2023-08-12T07:37:11;3.97;;;2.87;;
1000;SDS011;489;47.806;12.858;2023-08-12T07:39:13;2.93;;;2.73;;
1000;SDS011;489;47.806;12.858;2023-08-12T07:41:16;2.90;;;2.70;;
1000;SDS011;489;47.806;12.858;2023-08-12T07:43:18;3.20;;;2.90;;
1000;SDS011;489;47.806;12.858;2023-08-12T07:45:21;3.63;;;3.00;;
1000;SDS011;489;47.806;12.858;2023-08-12T07:47:23;3.33;;;3.03;;
1000;SDS011;489;47.806;12.858;2023-08-12T07:49:25;3.00;;;2.77;;
1000;SDS011;489;47.806;12.858;2023-08-12T07:51:27;3.13;;;2.87;;
1000;SDS011;489;47.806;12.858;2023-08-12T07:53:29;6.80;;;2.50;;
1000;SDS011;489;47.806;12.858;2023-08-12T07:55:31;3.87;;;3.47;;
1000;SDS011;489;47.806;12.858;2023-08-12T07:57:34;2.83;;;2.63;;
1000;SDS011;489;47.806;12.858;2023-08-12T07:59:36;2.93;;;2.73;;
1000;SDS011;489;47.806;12.858;2023-08-12T08:01:37;3.00;;;2.67;;
1000;SDS011;489;47.806;12.858;2023-08-12T08:03:39;3.23;;;2.73;;
1000;SDS011;489;47.806;12.858;2023-08-12T08:05:41;3.10;;;2.90;;
1000;SDS011;489;47.806;12.858;2023-08-12T08:08:07;5.10;;;2.70;;
1000;SDS011;489;47.806;12.858;2023-08-12T08:10:10;2.93;;;2.73;;
1000;SDS011;489;47.806;12.858;2023-08-12T08:12:12;3.00;;;2.80;;
1000;SDS011;489;47.806;12.858;2023-08-12T08:14:15;3.77;;;3.07;;
1000;SDS011;489;47.806;12.858;2023-08-12T08:16:17;20.47;;;4.73;;
1000;SDS011;489;47.806;12.858;2023-08-12T08:18:20;6.50;;;3.37;;
1000;SDS011;489;47.806;12.858;2023-08-12T08:20:22;10.87;;;4.70;;
1000;SDS011;489;47.806;12.858;2023-08-12T08:22:24;6.07;;;3.07;;
1000;SDS011;489;47.806;12.858;2023-08-12T08:24:26;6.20;;;3.23;;
1000;SDS011;489;47.806;12.858;2023-08-12T08:26:28;9.30;;;4.10;;
1000;SDS011;489;47.806;12.858;2023-08-12T08:28:30;4.67;;;3.57;;
1000;SDS011;489;47.806;12.858;2023-08-12T08:30:34;3.67;;;2.80;;
1000;SDS011;489;47.806;12.858;2023-08-12T08:32:36;5.50;;;3.30;;
1000;SDS011;489;47.806;12.858;2023-08-12T08:34:38;3.20;;;2.90;;
1000;SDS011;489;47.806;12.858;2023-08-12T08:36:40;3.57;;;2.70;;
1000;SDS011;489;47.806;12.858;2023-08-12T08:38:41;3.37;;;3.13;;
1000;SDS011;489;47.806;12.858;2023-08-12T08:40:43;2.73;;;2.53;;
1000;SDS011;489;47.806;12.858;2023-08-12T08:42:45;3.00;;;2.80;;
1000;SDS011;489;47.806;12.858;2023-08-12T08:44:51;3.33;;;3.03;;
1000;SDS011;489;47.806;12.858;2023-08-12T08:46:55;2.77;;;2.50;;
1000;SDS011;489;47.806;12.858;2023-08-12T08:48:59;3.23;;;3.03;;
1000;SDS011;489;47.806;12.858;2023-08-12T08:51:01;2.40;;;2.20;;
1000;SDS011;489;47.806;12.858;2023-08-12T08:53:04;3.07;;;2.87;;
1000;SDS011;489;47.806;12.858;2023-08-12T08:55:07;4.43;;;2.70;;
1000;SDS011;489;47.806;12.858;2023-08-12T08:57:10;3.30;;;3.10;;
1000;SDS011;489;47.806;12.858;2023-08-12T08:59:13;2.83;;;2.63;;
1000;SDS011;489;47.806;12.858;2023-08-12T09:01:15;2.90;;;2.70;;
1000;SDS011;489;47.806;12.858;2023-08-12T09:03:21;2.53;;;2.33;;
1000;SDS011;489;47.806;12.858;2023-08-12T09:05:23;2.80;;;2.60;;
1000;SDS011;489;47.806;12.858;2023-08-12T09:07:26;3.23;;;3.03;;
1000;SDS011;489;47.806;12.858;2023-08-12T09:09:28;5.53;;;3.20;;
1000;SDS011;489;47.806;12.858;2023-08-12T09:11:30;2.63;;;2.47;;
1000;SDS011;489;47.806;12.858;2023-08-12T09:13:32;2.73;;;2.60;;
1000;SDS011;489;47.806;12.858;2023-08-12T09:15:35;2.50;;;2.40;;
1000;SDS011;489;47.806;12.858;2023-08-12T09:17:37;2.43;;;2.23;;
1000;SDS011;489;47.806;12.858;2023-08-12T09:19:43;2.83;;;2.60;;
1000;SDS011;489;47.806;12.858;2023-08-12T09:21:45;2.60;;;2.40;;
1000;SDS011;489;47.806;12.858;2023-08-12T09:23:53;2.10;;;2.00;;
1000;SDS011;489;47.806;12.858;2023-08-12T09:25:56;3.10;;;2.80;;
1000;SDS011;489;47.806;12.858;2023-08-12T09:27:59;2.37;;;2.27;;
1000;SDS011;489;47.806;12.858;2023-08-12T09:30:02;4.17;;;2.83;;
1000;SDS011;489;47.806;12.858;2023-08-12T09:32:09;2.73;;;2.53;;
1000;SDS011;489;47.806;12.858;2023-08-12T09:34:12;2.93;;;2.77;;
1000;SDS011;489;47.806;12.858;2023-08-12T09:36:16;2.92;;;2.65;;
1000;SDS011;489;47.806;12.858;2023-08-12T09:38:18;2.50;;;2.30;;
1000;SDS011;489;47.806;12.858;2023-08-12T09:40:20;2.50;;;2.30;;
1000;SDS011;489;47.806;12.858;2023-08-12T09:42:22;2.60;;;2.40;;
1000;SDS011;489;47.806;12.858;2023-08-12T09:44:25;2.88;;;2.65;;
1000;SDS011;489;47.806;12.858;2023-08-12T09:46:27;2.72;;;2.53;;
1000;SDS011;489;47.806;12.858;2023-08-12T09:48:29;3.03;;;2.67;;
1000;SDS011;489;47.806;12.858;2023-08-12T09:50:31;3.30;;;3.00;;
1000;SDS011;489;47.806;12.858;2023-08-12T09:52:34;2.47;;;2.27;;
1000;SDS011;489;47.806;12.858;2023-08-12T09:54:37;2.25;;;2.15;;
1000;SDS011;489;47.806;12.858;2023-08-12T09:56:39;3.80;;;2.55;;
1000;SDS011;489;47.806;12.858;2023-08-12T09:58:42;2.65;;;2.45;;
1000;SDS011;489;47.806;12.858;2023-08-12T10:00:45;2.83;;;2.63;;
1000;SDS011;489;47.806;12.858;2023-08-12T10:02:48;2.42;;;2.30;;
1000;SDS011;489;47.806;12.858;2023-08-12T10:04:53;2.72;;;2.53;;
1000;SDS011;489;47.806;12.858;2023-08-12T10:06:56;2.22;;;2.03;;
1000;SDS011;489;47.806;12.858;2023-08-12T10:09:00;2.40;;;2.20;;
1000;SDS011;489;47.806;12.858;2023-08-12T10:11:02;2.47;;;2.38;;
1000;SDS011;489;47.806;12.858;2023-08-12T10:13:04;2.50;;;2.40;;
1000;SDS011;489;47.806;12.858;2023-08-12T10:15:08;2.63;;;2.42;;
1000;SDS011;489;47.806;12.858;2023-08-12T10:17:10;3.03;;;2.50;;
1000;SDS011;489;47.806;12.858;2023-08-12T10:19:13;2.55;;;2.35;;
1000;SDS011;489;47.806;12.858;2023-08-12T10:21:16;2.67;;;2.47;;
1000;SDS011;489;47.806;12.858;2023-08-12T10:23:18;2.90;;;2.70;;
1000;SDS011;489;47.806;12.858;2023-08-12T10:25:22;2.10;;;2.00;;
1000;SDS011;489;47.806;12.858;2023-08-12T10:27:26;2.50;;;2.30;;
1000;SDS011;489;47.806;12.858;2023-08-12T10:29:29;2.67;;;2.47;;
1000;SDS011;489;47.806;12.858;2023-08-12T10:31:31;2.38;;;2.17;;
1000;SDS011;489;47.806;12.858;2023-08-12T10:33:36;2.70;;;2.50;;
1000;SDS011;489;47.806;12.858;2023-08-12T10:35:45;2.47;;;2.28;;
1000;SDS011;489;47.806;12.858;2023-08-12T10:37:48;1.90;;;1.80;;
1000;SDS011;489;47.806;12.858;2023-08-12T10:39:51;2.25;;;2.15;;
1000;SDS011;489;47.806;12.858;2023-08-12T10:41:56;2.80;;;2.60;;
1000;SDS011;489;47.806;12.858;2023-08-12T10:43:58;2.28;;;2.10;;
1000;SDS011;489;47.806;12.858;2023-08-12T10:46:01;2.28;;;2.15;;
1000;SDS011;489;47.806;12.858;2023-08-12T10:48:10;2.88;;;2.67;;
1000;SDS011;489;47.806;12.858;2023-08-12T10:50:18;2.47;;;2.28;;
1000;SDS011;489;47.806;12.858;2023-08-12T10:52:27;2.42;;;2.22;;
1000;SDS011;489;47.806;12.858;2023-08-12T10:54:30;2.45;;;2.25;;
1000;SDS011;489;47.806;12.858;2023-08-12T10:56:32;2.65;;;2.45;;
1000;SDS011;489;47.806;12.858;2023-08-12T10:59:16;2.20;;;2.00;;
1000;SDS011;489;47.806;12.858;2023-08-12T11:01:52;2.08;;;1.98;;
1000;SDS011;489;47.806;12.858;2023-08-12T11:03:54;2.42;;;2.30;;
1000;SDS011;489;47.806;12.858;2023-08-12T11:05:57;2.20;;;2.10;;
1000;SDS011;489;47.806;12.858;2023-08-12T11:08:01;2.60;;;2.40;;
1000;SDS011;489;47.806;12.858;2023-08-12T11:10:04;2.78;;;2.58;;
1000;SDS011;489;47.806;12.858;2023-08-12T11:12:06;1.92;;;1.83;;
1000;SDS011;489;47.806;12.858;2023-08-12T11:14:13;2.10;;;2.00;;
1000;SDS011;489;47.806;12.858;2023-08-12T11:16:17;2.30;;;2.10;;
1000;SDS011;489;47.806;12.858;2023-08-12T11:18:19;2.40;;;2.20;;
1000;SDS011;489;47.806;12.858;2023-08-12T11:20:21;2.05;;;1.95;;
1000;SDS011;489;47.806;12.858;2023-08-12T11:22:22;2.45;;;2.25;;
1000;SDS011;489;47.806;12.858;2023-08-12T11:24:24;2.30;;;2.20;;
1000;SDS011;489;47.806;12.858;2023-08-12T11:26:27;2.50;;;2.30;;
1000;SDS011;489;47.806;12.858;2023-08-12T11:28:31;2.63;;;2.42;;
1000;SDS011;489;47.806;12.858;2023-08-12T11:30:35;2.90;;;2.70;;
1000;SDS011;489;47.806;12.858;2023-08-12T11:32:37;2.05;;;1.95;;
1000;SDS011;489;47.806;12.858;2023-08-12T11:34:39;2.55;;;2.35;;
1000;SDS011;489;47.806;12.858;2023-08-12T11:36:41;2.30;;;2.20;;
1000;SDS011;489;47.806;12.858;2023-08-12T11:38:43;2.67;;;2.47;;
1000;SDS011;489;47.806;12.858;2023-08-12T11:40:45;3.05;;;2.20;;
1000;SDS011;489;47.806;12.858;2023-08-12T11:42:48;2.50;;;2.40;;
1000;SDS011;489;47.806;12.858;2023-08-12T11:44:50;2.67;;;2.47;;
1000;SDS011;489;47.806;12.858;2023-08-12T11:46:54;2.47;;;2.28;;
1000;SDS011;489;47.806;12.858;2023-08-12T11:48:56;2.45;;;2.35;;
1000;SDS011;489;47.806;12.858;2023-08-12T11:50:57;2.70;;;2.50;;
1000;SDS011;489;47.806;12.858;2023-08-12T11:53:00;2.58;;;2.40;;
1000;SDS011;489;47.806;12.858;2023-08-12T11:55:02;2.42;;;2.22;;
1000;SDS011;489;47.806;12.858;2023-08-12T11:57:05;2.28;;;2.08;;
1000;SDS011;489;47.806;12.858;2023-08-12T11:59:30;2.50;;;2.40;;
1000;SDS011;489;47.806;12.858;2023-08-12T12:01:32;2.45;;;2.30;;
1000;SDS011;489;47.806;12.858;2023-08-12T12:03:36;2.75;;;2.55;;
1000;SDS011;489;47.806;12.858;2023-08-12T12:05:38;2.75;;;2.55;;
1000;SDS011;489;47.806;12.858;2023-08-12T12:07:40;2.13;;;2.03;;
1000;SDS011;489;47.806;12.858;2023-08-12T12:09:42;2.60;;;2.40;;
1000;SDS011;489;47.806;12.858;2023-08-12T12:11:45;2.70;;;2.50;;
1000;SDS011;489;47.806;12.858;2023-08-12T12:13:47;2.50;;;2.30;;
1000;SDS011;489;47.806;12.858;2023-08-12T12:15:49;2.30;;;2.17;;
1000;SDS011;489;47.806;12.858;2023-08-12T12:17:51;2.63;;;2.42;;
1000;SDS011;489;47.806;12.858;2023-08-12T12:19:56;2.38;;;2.17;;
1000;SDS011;489;47.806;12.858;2023-08-12T12:21:58;2.45;;;2.35;;
1000;SDS011;489;47.806;12.858;2023-08-12T12:24:05;2.40;;;2.30;;
1000;SDS011;489;47.806;12.858;2023-08-12T12:26:06;2.38;;;2.28;;
1000;SDS011;489;47.806;12.858;2023-08-12T12:28:11;2.70;;;2.50;;
1000;SDS011;489;47.806;12.858;2023-08-12T12:30:13;2.40;;;2.30;;
1000;SDS011;489;47.806;12.858;2023-08-12T12:32:17;2.13;;;2.00;;
1000;SDS011;489;47.806;12.858;2023-08-12T12:34:19;3.00;;;2.40;;
1000;SDS011;489;47.806;12.858;2023-08-12T12:36:24;2.38;;;2.28;;
1000;SDS011;489;47.806;12.858;2023-08-12T12:38:26;2.25;;;2.15;;
1000;SDS011;489;47.806;12.858;2023-08-12T12:40:28;2.00;;;1.90;;
1000;SDS011;489;47.806;12.858;2023-08-12T12:42:30;2.22;;;2.13;;
1000;SDS011;489;47.806;12.858;2023-08-12T12:44:32;2.50;;;2.30;;